CheckWX is a tool to help pilots better visualize weather data.  It is not intended as a substitute for an official pre-flight weather briefing.

07:19:23 UTC

ESGT METAR
Trollhättan-Vänersborg Airport
Trollhättan, Sweden
Current

29 mins ago

ESGT 210650Z 01013KT 9999 FEW007 15/13 Q1009
Observed
May-21 @ 06:50 UTC
Wind
  • 010° at 13 KTS
Visibility
10,000+ meters
Flight Rules
VFR
Cloud Levels
  • Few at 700' AGL
Temperature
15°C / 59°F
Dewpoint
13°C / 55°F
Humidity
88%
Altimeter
29.79" Hg
Pressure
1008.92 hPa
Previous

59 mins ago

ESGT 210620Z 01011KT 9000 BR SCT006 BKN009 15/14 Q1009
Observed
May-21 @ 06:20 UTC
Wind
  • 010° at 11 KTS
Visibility
8,996 meters
Flight Rules
IFR
Conditions
Mist
Cloud Levels
  • Scattered at 600' AGL
  • Broken at 900' AGL
Temperature
15°C / 59°F
Dewpoint
14°C / 57°F
Humidity
94%
Altimeter
29.79" Hg
Pressure
1008.92 hPa
Previous

1 hour ago

ESGT 210550Z 36009KT 8000 BR BKN003 14/14 Q1009
Observed
May-21 @ 05:50 UTC
Wind
  • 360° at 9 KTS
Visibility
7,998 meters
Flight Rules
LIFR
Conditions
Mist
Cloud Levels
  • Broken at 300' AGL
Temperature
14°C / 57°F
Dewpoint
14°C / 57°F
Humidity
100%
Altimeter
29.79" Hg
Pressure
1008.92 hPa